createdAt,value
2024-05-09T00:00:47.669Z,65.93
2024-05-09T00:06:10.985Z,53.56
2024-05-09T00:11:14.549Z,57.04
2024-05-09T00:16:17.546Z,61.83
2024-05-09T00:21:20.428Z,67.09
2024-05-09T00:26:24.387Z,54.75
2024-05-09T00:31:27.132Z,56.33
2024-05-09T00:36:30.271Z,59.58
2024-05-09T00:41:33.028Z,68.47
2024-05-09T00:46:35.921Z,58.98
2024-05-09T00:51:40.089Z,53.76
2024-05-09T00:56:42.983Z,58.22
2024-05-09T01:01:46.417Z,60.84
2024-05-09T01:06:49.270Z,68.61
2024-05-09T01:11:52.079Z,56.06
2024-05-09T01:16:55.074Z,54.33
2024-05-09T01:21:57.859Z,58.63
2024-05-09T01:27:00.550Z,61.66
2024-05-09T01:32:04.829Z,70.45
2024-05-09T01:37:07.768Z,57.84
2024-05-09T01:42:10.548Z,54.40
2024-05-09T01:47:13.403Z,57.58
2024-05-09T01:52:16.278Z,60.78
2024-05-09T01:57:19.097Z,70.16
2024-05-09T02:02:21.834Z,60.36
2024-05-09T02:07:25.326Z,54.48
2024-05-09T02:12:28.199Z,59.60
2024-05-09T02:17:31.474Z,67.57
2024-05-09T02:22:34.358Z,55.61
2024-05-09T02:27:37.053Z,55.72
2024-05-09T02:32:39.843Z,58.78
2024-05-09T02:37:43.098Z,61.50
2024-05-09T02:42:45.673Z,71.33
2024-05-09T02:47:48.721Z,60.12
2024-05-09T02:52:51.523Z,53.64
2024-05-09T02:57:54.648Z,57.77
2024-05-09T03:02:57.441Z,60.77
2024-05-09T03:08:00.411Z,69.20
2024-05-09T03:13:12.646Z,58.03
2024-05-09T03:18:17.150Z,54.41
2024-05-09T03:23:19.972Z,59.15
2024-05-09T03:28:22.663Z,61.83
2024-05-09T03:33:26.101Z,69.44
2024-05-09T03:38:29.159Z,55.80
2024-05-09T03:43:31.913Z,54.73
2024-05-09T03:48:36.109Z,57.17
2024-05-09T03:53:39.004Z,57.78
2024-05-09T03:58:42.045Z,60.57
2024-05-09T04:03:44.969Z,72.35
2024-05-09T04:08:47.892Z,60.89
2024-05-09T04:13:50.630Z,54.03
2024-05-09T04:18:53.438Z,58.46
2024-05-09T04:23:56.251Z,60.82
2024-05-09T04:28:58.959Z,68.06
2024-05-09T04:34:02.157Z,57.53
2024-05-09T04:39:04.778Z,55.41
2024-05-09T04:44:07.562Z,58.78
2024-05-09T04:49:10.402Z,60.09
2024-05-09T04:54:25.724Z,60.04
2024-05-09T04:59:33.183Z,70.71
2024-05-09T05:04:35.975Z,58.04
2024-05-09T05:09:38.703Z,53.79
2024-05-09T05:14:41.424Z,56.97
2024-05-09T05:19:44.784Z,59.99
2024-05-09T05:24:47.718Z,67.55
2024-05-09T05:29:50.447Z,54.30
2024-05-09T05:34:53.271Z,53.19
2024-05-09T05:39:56.357Z,55.31
2024-05-09T05:44:58.913Z,56.29
2024-05-09T05:50:02.217Z,56.77
2024-05-09T05:55:06.188Z,58.97
2024-05-09T06:00:15.141Z,58.36
2024-05-09T06:05:21.211Z,57.68
2024-05-09T06:10:36.986Z,58.00
2024-05-09T06:15:43.901Z,57.62
2024-05-09T06:20:48.001Z,56.83
2024-05-09T06:25:53.580Z,57.52
2024-05-09T06:30:58.458Z,58.00
2024-05-09T06:37:42.307Z,59.52
2024-05-09T06:42:50.340Z,58.87
2024-05-09T06:47:55.634Z,58.46
2024-05-09T06:52:59.276Z,57.47
2024-05-09T06:58:04.023Z,58.21
2024-05-09T07:03:16.905Z,56.37
2024-05-09T07:08:21.218Z,54.74
2024-05-09T07:13:23.818Z,52.78
2024-05-09T07:18:26.640Z,52.76
2024-05-09T07:23:29.582Z,51.99
2024-05-09T07:28:33.587Z,51.92
2024-05-09T07:33:40.202Z,50.69
2024-05-09T07:38:43.002Z,50.31
2024-05-09T07:43:45.966Z,49.20
2024-05-09T07:53:57.110Z,48.24
2024-05-09T07:59:02.507Z,48.05
2024-05-09T08:04:05.675Z,45.10
2024-05-09T08:09:13.877Z,44.94
2024-05-09T08:14:31.401Z,44.55
2024-05-09T08:19:34.900Z,43.80
2024-05-09T08:24:55.356Z,43.81
2024-05-09T08:30:24.606Z,44.72
2024-05-09T08:35:46.853Z,44.88
2024-05-09T08:40:50.917Z,45.22
2024-05-09T08:45:58.194Z,45.73
2024-05-09T08:51:06.080Z,43.94
2024-05-09T08:56:11.198Z,42.92
2024-05-09T09:01:14.258Z,43.03
2024-05-09T09:06:21.520Z,43.82
2024-05-09T09:11:24.215Z,44.35
2024-05-09T09:16:35.936Z,43.61
2024-05-09T09:21:38.602Z,44.61
2024-05-09T09:26:45.490Z,43.60
2024-05-09T09:32:00.728Z,42.56
2024-05-09T09:37:05.682Z,41.70
2024-05-09T09:42:11.812Z,42.10
2024-05-09T09:47:16.968Z,41.93
2024-05-09T09:52:20.590Z,41.61
2024-05-09T09:57:23.830Z,42.70
2024-05-09T10:02:26.430Z,41.93
2024-05-09T10:07:30.570Z,42.03
2024-05-09T10:12:38.935Z,39.60
2024-05-09T10:17:50.878Z,40.26
2024-05-09T10:22:53.601Z,40.49
2024-05-09T10:27:56.390Z,40.41
2024-05-09T10:33:00.107Z,40.60
2024-05-09T10:38:06.427Z,40.29
2024-05-09T10:43:09.445Z,38.50
2024-05-09T10:48:12.437Z,37.80
2024-05-09T10:53:15.141Z,37.34
2024-05-09T10:58:17.864Z,37.85
2024-05-09T11:03:23.721Z,37.89
2024-05-09T11:08:26.857Z,37.41
2024-05-09T11:13:33.998Z,36.98
2024-05-09T11:18:39.006Z,37.01
2024-05-09T11:23:42.218Z,37.21
2024-05-09T11:28:46.261Z,37.53
2024-05-09T11:33:51.725Z,38.34
2024-05-09T11:38:54.859Z,38.03
2024-05-09T11:43:58.095Z,38.55
2024-05-09T11:49:01.875Z,38.40
2024-05-09T11:54:04.603Z,38.92
2024-05-09T11:59:07.521Z,38.78
2024-05-09T12:04:10.372Z,39.03
2024-05-09T12:09:14.998Z,38.55
2024-05-09T12:14:26.804Z,37.74
2024-05-09T12:19:29.871Z,37.59
2024-05-09T12:24:32.810Z,38.02
2024-05-09T12:29:38.251Z,37.99
2024-05-09T12:34:41.880Z,37.98
2024-05-09T12:39:45.884Z,37.85
2024-05-09T12:44:49.120Z,37.19
2024-05-09T12:49:51.899Z,37.09
2024-05-09T12:54:54.833Z,37.25
2024-05-09T12:59:57.641Z,37.05
2024-05-09T13:05:00.314Z,36.68
2024-05-09T13:10:03.165Z,37.10
2024-05-09T13:15:06.597Z,36.60
2024-05-09T13:20:15.048Z,36.74
2024-05-09T13:25:24.995Z,36.80
2024-05-09T13:30:35.602Z,37.06
2024-05-09T13:35:47.177Z,36.67
2024-05-09T13:40:53.001Z,36.44
2024-05-09T13:45:57.129Z,36.38
2024-05-09T13:50:59.967Z,37.11
2024-05-09T13:56:02.733Z,36.61
2024-05-09T14:01:05.540Z,35.93
2024-05-09T14:06:11.267Z,35.63
2024-05-09T14:11:15.669Z,35.48
2024-05-09T14:16:18.489Z,33.86
2024-05-09T14:21:21.239Z,33.49
2024-05-09T14:26:26.089Z,34.29
2024-05-09T14:31:28.875Z,34.95
2024-05-09T14:36:33.179Z,32.51
2024-05-09T14:41:35.848Z,32.00
2024-05-09T14:46:39.670Z,31.06
2024-05-09T14:51:46.855Z,30.78
2024-05-09T14:56:49.514Z,31.25
2024-05-09T15:01:52.207Z,29.78
2024-05-09T15:06:56.532Z,29.27
2024-05-09T15:11:59.211Z,29.06
2024-05-09T15:17:02.538Z,29.05
2024-05-09T15:22:05.264Z,28.84
2024-05-09T15:27:08.033Z,27.89
2024-05-09T15:32:10.680Z,26.04
2024-05-09T15:37:13.766Z,25.41
2024-05-09T15:42:16.496Z,26.04
2024-05-09T15:47:20.375Z,24.63
2024-05-09T15:52:23.089Z,24.76
2024-05-09T15:57:25.998Z,25.06
2024-05-09T16:02:28.708Z,24.78
2024-05-09T16:07:31.659Z,25.26
2024-05-09T16:12:34.310Z,25.23
2024-05-09T16:17:37.135Z,24.32
2024-05-09T16:22:39.818Z,24.64
2024-05-09T16:27:42.466Z,24.14
2024-05-09T16:32:46.195Z,24.23
2024-05-09T16:37:49.449Z,24.40
2024-05-09T16:42:52.240Z,23.59
2024-05-09T16:47:55.810Z,24.18
2024-05-09T16:52:58.843Z,22.93
2024-05-09T16:58:02.208Z,23.49
2024-05-09T17:03:05.849Z,23.55
2024-05-09T17:08:08.936Z,24.15
2024-05-09T17:13:11.598Z,24.56
2024-05-09T17:18:14.686Z,24.73
2024-05-09T17:23:17.501Z,24.84
2024-05-09T17:28:20.390Z,25.41
2024-05-09T17:33:23.405Z,27.16
2024-05-09T17:38:26.176Z,28.19
2024-05-09T17:43:28.841Z,28.87
2024-05-09T17:48:31.686Z,32.15
2024-05-09T17:53:34.535Z,33.23
2024-05-09T17:58:37.194Z,35.54
2024-05-09T18:03:40.122Z,36.87
2024-05-09T18:08:42.931Z,37.70
2024-05-09T18:13:45.990Z,39.50
2024-05-09T18:18:48.698Z,41.78
2024-05-09T18:23:53.958Z,41.68
2024-05-09T18:28:57.588Z,43.49
2024-05-09T18:34:00.259Z,46.42
2024-05-09T18:39:03.239Z,48.36
2024-05-09T18:44:05.959Z,47.49
2024-05-09T18:49:09.342Z,49.08
2024-05-09T18:54:12.573Z,51.04
2024-05-09T18:59:15.178Z,52.17
2024-05-09T19:04:19.044Z,53.55
2024-05-09T19:09:22.094Z,54.68
2024-05-09T19:14:25.202Z,56.63
2024-05-09T19:19:28.100Z,56.54
2024-05-09T19:24:30.913Z,56.85
2024-05-09T19:29:33.714Z,56.10
2024-05-09T19:34:36.411Z,57.97
2024-05-09T19:39:39.186Z,57.96
2024-05-09T19:44:41.774Z,58.05
2024-05-09T19:49:44.566Z,59.32
2024-05-09T19:54:49.886Z,59.43
2024-05-09T19:59:52.541Z,59.08
2024-05-09T20:04:55.334Z,59.97
2024-05-09T20:09:58.158Z,60.89
2024-05-09T20:15:00.868Z,60.38
2024-05-09T20:20:06.022Z,61.94
2024-05-09T20:25:11.896Z,72.22
2024-05-09T20:30:21.034Z,61.46
2024-05-09T20:35:31.852Z,53.53
2024-05-09T20:40:37.848Z,56.61
2024-05-09T20:45:42.384Z,53.62
2024-05-09T20:50:45.127Z,55.10
2024-05-09T20:55:47.728Z,56.08
2024-05-09T21:00:50.412Z,63.58
2024-05-09T21:05:53.127Z,63.19
2024-05-09T21:10:55.863Z,54.12
2024-05-09T21:15:58.856Z,56.35
2024-05-09T21:21:01.613Z,54.12
2024-05-09T21:26:06.197Z,59.75
2024-05-09T21:31:09.264Z,69.11
2024-05-09T21:36:11.740Z,60.26
2024-05-09T21:41:14.343Z,53.79
2024-05-09T21:46:17.134Z,57.35
2024-05-09T21:51:19.759Z,59.21
2024-05-09T21:56:22.299Z,60.97
2024-05-09T22:01:25.057Z,67.81
2024-05-09T22:06:27.708Z,56.73
2024-05-09T22:11:31.120Z,55.11
2024-05-09T22:16:33.787Z,58.53
2024-05-09T22:21:36.402Z,61.26
2024-05-09T22:26:39.023Z,67.77
2024-05-09T22:31:41.639Z,58.30
2024-05-09T22:36:44.214Z,54.80
2024-05-09T22:41:46.804Z,58.29
2024-05-09T22:46:49.402Z,61.25
2024-05-09T22:51:52.111Z,67.94
2024-05-09T22:56:54.707Z,56.77
2024-05-09T23:01:57.301Z,55.33
2024-05-09T23:06:59.980Z,58.74
2024-05-09T23:12:02.700Z,61.39
2024-05-09T23:17:05.399Z,68.51
2024-05-09T23:22:08.342Z,57.18
2024-05-09T23:27:11.017Z,55.71
2024-05-09T23:32:13.713Z,59.53
2024-05-09T23:37:16.445Z,60.88
2024-05-09T23:42:19.280Z,68.30
2024-05-09T23:47:22.041Z,57.09
2024-05-09T23:52:24.814Z,55.38
2024-05-09T23:57:27.482Z,59.17
